sensor_id;sensor_type;location;lat;lon;timestamp;pressure;altitude;pressure_sealevel;temperature
20730;BMP280;10526;50.850;12.928;2023-02-26T00:02:11;97293.41;;;-1.52
20730;BMP280;10526;50.850;12.928;2023-02-26T00:06:37;97288.94;;;-1.63
20730;BMP280;10526;50.850;12.928;2023-02-26T00:10:59;97291.09;;;-1.65
20730;BMP280;10526;50.850;12.928;2023-02-26T00:15:23;97300.47;;;-1.64
20730;BMP280;10526;50.850;12.928;2023-02-26T00:19:46;97304.59;;;-1.63
20730;BMP280;10526;50.850;12.928;2023-02-26T00:24:08;97314.56;;;-1.65
20730;BMP280;10526;50.850;12.928;2023-02-26T00:28:30;97313.69;;;-1.70
20730;BMP280;10526;50.850;12.928;2023-02-26T00:32:53;97316.97;;;-1.73
20730;BMP280;10526;50.850;12.928;2023-02-26T00:42:08;97322.19;;;-1.73
20730;BMP280;10526;50.850;12.928;2023-02-26T00:46:49;97316.53;;;-1.75
20730;BMP280;10526;50.850;12.928;2023-02-26T00:56:00;97332.53;;;-1.76
20730;BMP280;10526;50.850;12.928;2023-02-26T01:00:22;97332.19;;;-1.75
20730;BMP280;10526;50.850;12.928;2023-02-26T01:04:44;97332.63;;;-1.73
20730;BMP280;10526;50.850;12.928;2023-02-26T01:09:34;97337.63;;;-1.67
20730;BMP280;10526;50.850;12.928;2023-02-26T01:13:57;97344.38;;;-1.66
20730;BMP280;10526;50.850;12.928;2023-02-26T01:18:27;97344.38;;;-1.66
20730;BMP280;10526;50.850;12.928;2023-02-26T01:27:20;97338.53;;;-1.63
20730;BMP280;10526;50.850;12.928;2023-02-26T01:32:02;97344.63;;;-1.59
20730;BMP280;10526;50.850;12.928;2023-02-26T01:36:32;97341.13;;;-1.63
20730;BMP280;10526;50.850;12.928;2023-02-26T01:50:38;97346.94;;;-1.46
20730;BMP280;10526;50.850;12.928;2023-02-26T01:55:00;97349.22;;;-1.44
20730;BMP280;10526;50.850;12.928;2023-02-26T01:59:23;97354.44;;;-1.44
20730;BMP280;10526;50.850;12.928;2023-02-26T02:03:45;97359.41;;;-1.51
20730;BMP280;10526;50.850;12.928;2023-02-26T02:08:08;97362.78;;;-1.51
20730;BMP280;10526;50.850;12.928;2023-02-26T02:17:07;97366.16;;;-1.50
20730;BMP280;10526;50.850;12.928;2023-02-26T02:26:50;97368.22;;;-1.56
20730;BMP280;10526;50.850;12.928;2023-02-26T02:31:32;97371.16;;;-1.57
20730;BMP280;10526;50.850;12.928;2023-02-26T02:36:14;97377.78;;;-1.60
20730;BMP280;10526;50.850;12.928;2023-02-26T02:40:42;97380.06;;;-1.58
20730;BMP280;10526;50.850;12.928;2023-02-26T02:45:44;97377.72;;;-1.39
20730;BMP280;10526;50.850;12.928;2023-02-26T02:50:34;97392.75;;;-1.36
20730;BMP280;10526;50.850;12.928;2023-02-26T02:55:21;97396.00;;;-1.39
20730;BMP280;10526;50.850;12.928;2023-02-26T02:59:50;97402.75;;;-1.38
20730;BMP280;10526;50.850;12.928;2023-02-26T03:04:15;97411.66;;;-1.39
20730;BMP280;10526;50.850;12.928;2023-02-26T03:08:40;97412.13;;;-1.37
20730;BMP280;10526;50.850;12.928;2023-02-26T03:13:03;97422.91;;;-1.38
20730;BMP280;10526;50.850;12.928;2023-02-26T03:23:13;97445.59;;;-1.39
20730;BMP280;10526;50.850;12.928;2023-02-26T03:37:46;97472.00;;;-1.53
20730;BMP280;10526;50.850;12.928;2023-02-26T03:42:31;97479.84;;;-1.53
20730;BMP280;10526;50.850;12.928;2023-02-26T03:47:04;97479.38;;;-1.55
20730;BMP280;10526;50.850;12.928;2023-02-26T03:51:28;97494.63;;;-1.57
20730;BMP280;10526;50.850;12.928;2023-02-26T03:56:08;97498.75;;;-1.56
20730;BMP280;10526;50.850;12.928;2023-02-26T04:00:54;97508.44;;;-1.56
20730;BMP280;10526;50.850;12.928;2023-02-26T04:05:22;97508.56;;;-1.53
20730;BMP280;10526;50.850;12.928;2023-02-26T04:09:50;97512.13;;;-1.57
20730;BMP280;10526;50.850;12.928;2023-02-26T04:14:14;97526.38;;;-1.55
20730;BMP280;10526;50.850;12.928;2023-02-26T04:18:37;97522.44;;;-1.61
20730;BMP280;10526;50.850;12.928;2023-02-26T04:23:01;97541.47;;;-1.60
20730;BMP280;10526;50.850;12.928;2023-02-26T04:27:23;97535.94;;;-1.59
20730;BMP280;10526;50.850;12.928;2023-02-26T04:31:45;97543.34;;;-1.61
20730;BMP280;10526;50.850;12.928;2023-02-26T04:36:08;97547.00;;;-1.62
20730;BMP280;10526;50.850;12.928;2023-02-26T04:40:30;97548.09;;;-1.63
20730;BMP280;10526;50.850;12.928;2023-02-26T04:44:52;97558.22;;;-1.61
20730;BMP280;10526;50.850;12.928;2023-02-26T04:49:18;97553.78;;;-1.61
20730;BMP280;10526;50.850;12.928;2023-02-26T04:53:41;97563.88;;;-1.59
20730;BMP280;10526;50.850;12.928;2023-02-26T04:58:03;97564.84;;;-1.64
20730;BMP280;10526;50.850;12.928;2023-02-26T05:02:26;97575.41;;;-1.60
20730;BMP280;10526;50.850;12.928;2023-02-26T05:06:48;97582.78;;;-1.62
20730;BMP280;10526;50.850;12.928;2023-02-26T05:11:10;97586.94;;;-1.61
20730;BMP280;10526;50.850;12.928;2023-02-26T05:15:33;97591.69;;;-1.63
20730;BMP280;10526;50.850;12.928;2023-02-26T05:19:55;97595.66;;;-1.57
20730;BMP280;10526;50.850;12.928;2023-02-26T05:24:17;97607.31;;;-1.55
20730;BMP280;10526;50.850;12.928;2023-02-26T05:28:39;97611.13;;;-1.52
20730;BMP280;10526;50.850;12.928;2023-02-26T05:33:02;97620.94;;;-1.49
20730;BMP280;10526;50.850;12.928;2023-02-26T05:37:24;97625.09;;;-1.48
20730;BMP280;10526;50.850;12.928;2023-02-26T05:41:46;97634.63;;;-1.52
20730;BMP280;10526;50.850;12.928;2023-02-26T05:46:08;97647.88;;;-1.57
20730;BMP280;10526;50.850;12.928;2023-02-26T05:50:31;97662.38;;;-1.68
20730;BMP280;10526;50.850;12.928;2023-02-26T05:54:53;97661.47;;;-1.73
20730;BMP280;10526;50.850;12.928;2023-02-26T05:59:17;97675.56;;;-1.74
20730;BMP280;10526;50.850;12.928;2023-02-26T06:03:39;97682.44;;;-1.60
20730;BMP280;10526;50.850;12.928;2023-02-26T06:08:05;97686.56;;;-1.59
20730;BMP280;10526;50.850;12.928;2023-02-26T06:12:27;97704.66;;;-1.54
20730;BMP280;10526;50.850;12.928;2023-02-26T06:16:50;97715.75;;;-1.57
20730;BMP280;10526;50.850;12.928;2023-02-26T06:21:12;97721.22;;;-1.50
20730;BMP280;10526;50.850;12.928;2023-02-26T06:25:34;97731.31;;;-1.40
20730;BMP280;10526;50.850;12.928;2023-02-26T06:29:57;97730.44;;;-1.44
20730;BMP280;10526;50.850;12.928;2023-02-26T06:34:19;97734.75;;;-1.48
20730;BMP280;10526;50.850;12.928;2023-02-26T06:38:43;97747.47;;;-1.47
20730;BMP280;10526;50.850;12.928;2023-02-26T06:43:06;97753.13;;;-1.36
20730;BMP280;10526;50.850;12.928;2023-02-26T06:47:28;97763.69;;;-1.24
20730;BMP280;10526;50.850;12.928;2023-02-26T06:51:50;97771.31;;;-1.10
20730;BMP280;10526;50.850;12.928;2023-02-26T06:56:11;97776.22;;;-1.08
20730;BMP280;10526;50.850;12.928;2023-02-26T07:00:34;97781.28;;;-1.12
20730;BMP280;10526;50.850;12.928;2023-02-26T07:04:57;97797.44;;;-1.10
20730;BMP280;10526;50.850;12.928;2023-02-26T07:09:19;97799.91;;;-1.13
20730;BMP280;10526;50.850;12.928;2023-02-26T07:13:41;97812.97;;;-1.13
20730;BMP280;10526;50.850;12.928;2023-02-26T07:18:03;97819.72;;;-1.12
20730;BMP280;10526;50.850;12.928;2023-02-26T07:22:25;97832.16;;;-1.09
20730;BMP280;10526;50.850;12.928;2023-02-26T07:26:47;97838.91;;;-1.00
20730;BMP280;10526;50.850;12.928;2023-02-26T07:31:09;97844.25;;;-0.96
20730;BMP280;10526;50.850;12.928;2023-02-26T07:35:32;97849.75;;;-0.89
20730;BMP280;10526;50.850;12.928;2023-02-26T07:39:54;97856.25;;;-0.95
20730;BMP280;10526;50.850;12.928;2023-02-26T07:44:17;97862.50;;;-0.87
20730;BMP280;10526;50.850;12.928;2023-02-26T07:48:39;97867.88;;;-0.84
20730;BMP280;10526;50.850;12.928;2023-02-26T07:53:01;97875.72;;;-0.84
20730;BMP280;10526;50.850;12.928;2023-02-26T07:57:24;97886.22;;;-0.63
20730;BMP280;10526;50.850;12.928;2023-02-26T08:01:46;97892.28;;;-0.50
20730;BMP280;10526;50.850;12.928;2023-02-26T08:06:08;97894.59;;;-0.49
20730;BMP280;10526;50.850;12.928;2023-02-26T08:10:30;97897.78;;;-0.43
20730;BMP280;10526;50.850;12.928;2023-02-26T08:14:52;97903.28;;;-0.36
20730;BMP280;10526;50.850;12.928;2023-02-26T08:19:14;97912.19;;;-0.28
20730;BMP280;10526;50.850;12.928;2023-02-26T08:23:37;97914.13;;;-0.16
20730;BMP280;10526;50.850;12.928;2023-02-26T08:28:00;97922.88;;;-0.12
20730;BMP280;10526;50.850;12.928;2023-02-26T08:32:24;97920.91;;;-0.15
20730;BMP280;10526;50.850;12.928;2023-02-26T08:36:48;97923.31;;;-0.10
20730;BMP280;10526;50.850;12.928;2023-02-26T08:41:11;97941.44;;;-0.05
20730;BMP280;10526;50.850;12.928;2023-02-26T08:45:33;97934.00;;;0.06
20730;BMP280;10526;50.850;12.928;2023-02-26T08:49:55;97949.88;;;0.21
20730;BMP280;10526;50.850;12.928;2023-02-26T08:54:18;97956.69;;;0.35
20730;BMP280;10526;50.850;12.928;2023-02-26T08:58:40;97963.84;;;0.46
20730;BMP280;10526;50.850;12.928;2023-02-26T09:03:01;97967.78;;;0.53
20730;BMP280;10526;50.850;12.928;2023-02-26T09:07:23;97958.69;;;0.71
20730;BMP280;10526;50.850;12.928;2023-02-26T09:11:46;97963.69;;;1.09
20730;BMP280;10526;50.850;12.928;2023-02-26T09:16:08;97984.03;;;1.37
20730;BMP280;10526;50.850;12.928;2023-02-26T09:20:30;97991.56;;;1.38
20730;BMP280;10526;50.850;12.928;2023-02-26T09:24:52;97998.72;;;1.50
20730;BMP280;10526;50.850;12.928;2023-02-26T09:29:14;98011.59;;;1.67
20730;BMP280;10526;50.850;12.928;2023-02-26T09:33:37;98018.06;;;1.82
20730;BMP280;10526;50.850;12.928;2023-02-26T09:37:59;98029.69;;;1.81
20730;BMP280;10526;50.850;12.928;2023-02-26T09:47:21;98033.25;;;1.52
20730;BMP280;10526;50.850;12.928;2023-02-26T09:51:49;98042.22;;;1.39
20730;BMP280;10526;50.850;12.928;2023-02-26T09:56:17;98048.84;;;1.36
20730;BMP280;10526;50.850;12.928;2023-02-26T10:05:38;98067.34;;;1.40
20730;BMP280;10526;50.850;12.928;2023-02-26T10:10:30;98076.41;;;0.97
20730;BMP280;10526;50.850;12.928;2023-02-26T10:15:15;98085.47;;;0.99
20730;BMP280;10526;50.850;12.928;2023-02-26T10:19:44;98084.06;;;1.02
20730;BMP280;10526;50.850;12.928;2023-02-26T10:24:27;98080.19;;;0.87
20730;BMP280;10526;50.850;12.928;2023-02-26T10:29:06;98094.47;;;0.78
20730;BMP280;10526;50.850;12.928;2023-02-26T10:38:10;98096.19;;;1.28
20730;BMP280;10526;50.850;12.928;2023-02-26T10:42:58;98110.22;;;1.56
20730;BMP280;10526;50.850;12.928;2023-02-26T10:47:43;98111.06;;;1.81
20730;BMP280;10526;50.850;12.928;2023-02-26T10:52:17;98123.09;;;1.82
20730;BMP280;10526;50.850;12.928;2023-02-26T10:56:39;98119.69;;;1.69
20730;BMP280;10526;50.850;12.928;2023-02-26T11:01:03;98124.72;;;1.29
20730;BMP280;10526;50.850;12.928;2023-02-26T11:05:31;98135.56;;;1.40
20730;BMP280;10526;50.850;12.928;2023-02-26T11:09:53;98124.47;;;1.92
20730;BMP280;10526;50.850;12.928;2023-02-26T11:14:16;98126.91;;;2.21
20730;BMP280;10526;50.850;12.928;2023-02-26T11:18:47;98122.66;;;2.05
20730;BMP280;10526;50.850;12.928;2023-02-26T11:23:21;98126.03;;;2.05
20730;BMP280;10526;50.850;12.928;2023-02-26T11:27:49;98128.44;;;2.35
20730;BMP280;10526;50.850;12.928;2023-02-26T11:32:21;98137.31;;;2.18
20730;BMP280;10526;50.850;12.928;2023-02-26T11:36:44;98125.16;;;2.01
20730;BMP280;10526;50.850;12.928;2023-02-26T11:41:06;98146.00;;;1.61
20730;BMP280;10526;50.850;12.928;2023-02-26T11:45:28;98144.56;;;1.51
20730;BMP280;10526;50.850;12.928;2023-02-26T11:49:54;98137.63;;;1.80
20730;BMP280;10526;50.850;12.928;2023-02-26T11:54:23;98145.63;;;2.32
20730;BMP280;10526;50.850;12.928;2023-02-26T11:58:46;98133.22;;;3.41
20730;BMP280;10526;50.850;12.928;2023-02-26T12:03:25;98141.88;;;4.75
20730;BMP280;10526;50.850;12.928;2023-02-26T12:07:49;98140.53;;;3.80
20730;BMP280;10526;50.850;12.928;2023-02-26T12:32:10;98145.94;;;1.82
20730;BMP280;10526;50.850;12.928;2023-02-26T12:51:52;98164.69;;;3.38
20730;BMP280;10526;50.850;12.928;2023-02-26T12:56:43;98174.34;;;2.90
20730;BMP280;10526;50.850;12.928;2023-02-26T13:12:22;98168.63;;;2.88
20730;BMP280;10526;50.850;12.928;2023-02-26T13:17:23;98171.56;;;2.58
20730;BMP280;10526;50.850;12.928;2023-02-26T13:21:49;98185.91;;;2.61
20730;BMP280;10526;50.850;12.928;2023-02-26T13:26:14;98193.00;;;2.60
20730;BMP280;10526;50.850;12.928;2023-02-26T13:30:49;98191.66;;;2.79
20730;BMP280;10526;50.850;12.928;2023-02-26T13:35:40;98197.25;;;2.89
20730;BMP280;10526;50.850;12.928;2023-02-26T13:46:00;98191.22;;;2.77
20730;BMP280;10526;50.850;12.928;2023-02-26T13:50:39;98198.50;;;3.08
20730;BMP280;10526;50.850;12.928;2023-02-26T13:55:04;98200.16;;;3.28
20730;BMP280;10526;50.850;12.928;2023-02-26T14:08:46;98198.13;;;2.81
20730;BMP280;10526;50.850;12.928;2023-02-26T14:13:16;98197.84;;;2.58
20730;BMP280;10526;50.850;12.928;2023-02-26T14:17:51;98205.75;;;2.46
20730;BMP280;10526;50.850;12.928;2023-02-26T14:36:26;98220.47;;;2.02
20730;BMP280;10526;50.850;12.928;2023-02-26T14:41:00;98225.41;;;2.03
20730;BMP280;10526;50.850;12.928;2023-02-26T14:45:41;98227.34;;;1.94
20730;BMP280;10526;50.850;12.928;2023-02-26T14:50:06;98231.25;;;1.88
20730;BMP280;10526;50.850;12.928;2023-02-26T14:54:55;98237.41;;;1.92
20730;BMP280;10526;50.850;12.928;2023-02-26T15:00:02;98235.69;;;1.96
20730;BMP280;10526;50.850;12.928;2023-02-26T15:15:30;98239.47;;;1.53
20730;BMP280;10526;50.850;12.928;2023-02-26T15:24:44;98250.25;;;1.18
20730;BMP280;10526;50.850;12.928;2023-02-26T15:29:10;98245.38;;;1.08
20730;BMP280;10526;50.850;12.928;2023-02-26T15:33:34;98249.88;;;1.08
20730;BMP280;10526;50.850;12.928;2023-02-26T15:38:00;98253.13;;;1.05
20730;BMP280;10526;50.850;12.928;2023-02-26T15:42:30;98252.09;;;0.88
20730;BMP280;10526;50.850;12.928;2023-02-26T15:46:59;98258.31;;;0.84
20730;BMP280;10526;50.850;12.928;2023-02-26T15:51:23;98262.22;;;0.78
20730;BMP280;10526;50.850;12.928;2023-02-26T15:55:50;98258.84;;;0.68
20730;BMP280;10526;50.850;12.928;2023-02-26T16:00:20;98254.84;;;0.71
20730;BMP280;10526;50.850;12.928;2023-02-26T16:04:46;98266.28;;;0.66
20730;BMP280;10526;50.850;12.928;2023-02-26T16:09:33;98269.25;;;0.47
20730;BMP280;10526;50.850;12.928;2023-02-26T16:13:56;98267.69;;;0.17
20730;BMP280;10526;50.850;12.928;2023-02-26T16:18:23;98273.44;;;-0.07
20730;BMP280;10526;50.850;12.928;2023-02-26T16:27:19;98278.06;;;-0.30
20730;BMP280;10526;50.850;12.928;2023-02-26T16:31:42;98289.72;;;-0.36
20730;BMP280;10526;50.850;12.928;2023-02-26T16:36:15;98294.19;;;-0.37
20730;BMP280;10526;50.850;12.928;2023-02-26T16:40:40;98296.03;;;-0.46
20730;BMP280;10526;50.850;12.928;2023-02-26T16:49:58;98313.69;;;-0.69
20730;BMP280;10526;50.850;12.928;2023-02-26T16:54:40;98322.72;;;-0.84
20730;BMP280;10526;50.850;12.928;2023-02-26T17:03:34;98330.81;;;-1.03
20730;BMP280;10526;50.850;12.928;2023-02-26T17:08:20;98334.19;;;-1.11
20730;BMP280;10526;50.850;12.928;2023-02-26T17:12:48;98347.31;;;-1.25
20730;BMP280;10526;50.850;12.928;2023-02-26T17:17:11;98349.59;;;-1.32
20730;BMP280;10526;50.850;12.928;2023-02-26T17:21:34;98356.00;;;-1.38
20730;BMP280;10526;50.850;12.928;2023-02-26T17:25:58;98367.50;;;-1.39
20730;BMP280;10526;50.850;12.928;2023-02-26T17:30:23;98383.97;;;-1.38
20730;BMP280;10526;50.850;12.928;2023-02-26T17:34:46;98386.59;;;-1.38
20730;BMP280;10526;50.850;12.928;2023-02-26T17:39:11;98392.22;;;-1.45
20730;BMP280;10526;50.850;12.928;2023-02-26T17:43:33;98398.25;;;-1.58
20730;BMP280;10526;50.850;12.928;2023-02-26T17:47:57;98398.03;;;-1.71
20730;BMP280;10526;50.850;12.928;2023-02-26T17:52:19;98405.72;;;-1.88
20730;BMP280;10526;50.850;12.928;2023-02-26T17:56:41;98412.31;;;-2.04
20730;BMP280;10526;50.850;12.928;2023-02-26T18:01:06;98419.88;;;-2.16
20730;BMP280;10526;50.850;12.928;2023-02-26T18:05:29;98420.00;;;-2.22
20730;BMP280;10526;50.850;12.928;2023-02-26T18:09:53;98426.03;;;-2.12
20730;BMP280;10526;50.850;12.928;2023-02-26T18:14:15;98425.72;;;-1.97
20730;BMP280;10526;50.850;12.928;2023-02-26T18:18:37;98444.06;;;-1.75
20730;BMP280;10526;50.850;12.928;2023-02-26T18:22:59;98442.78;;;-1.63
20730;BMP280;10526;50.850;12.928;2023-02-26T18:27:24;98442.56;;;-1.53
20730;BMP280;10526;50.850;12.928;2023-02-26T18:31:46;98446.13;;;-1.49
20730;BMP280;10526;50.850;12.928;2023-02-26T18:36:38;98437.25;;;-1.39
20730;BMP280;10526;50.850;12.928;2023-02-26T18:41:00;98441.13;;;-1.37
20730;BMP280;10526;50.850;12.928;2023-02-26T18:45:23;98454.19;;;-1.37
20730;BMP280;10526;50.850;12.928;2023-02-26T18:49:47;98453.13;;;-1.36
20730;BMP280;10526;50.850;12.928;2023-02-26T18:54:09;98458.34;;;-1.36
20730;BMP280;10526;50.850;12.928;2023-02-26T18:58:35;98471.53;;;-1.41
20730;BMP280;10526;50.850;12.928;2023-02-26T19:03:01;98481.78;;;-1.44
20730;BMP280;10526;50.850;12.928;2023-02-26T19:07:22;98481.59;;;-1.48
20730;BMP280;10526;50.850;12.928;2023-02-26T19:11:45;98486.81;;;-1.48
20730;BMP280;10526;50.850;12.928;2023-02-26T19:16:07;98487.00;;;-1.44
20730;BMP280;10526;50.850;12.928;2023-02-26T19:20:29;98500.72;;;-1.39
20730;BMP280;10526;50.850;12.928;2023-02-26T19:24:51;98511.66;;;-1.37
20730;BMP280;10526;50.850;12.928;2023-02-26T19:29:18;98514.47;;;-1.33
20730;BMP280;10526;50.850;12.928;2023-02-26T19:33:40;98516.78;;;-1.32
20730;BMP280;10526;50.850;12.928;2023-02-26T19:38:03;98514.16;;;-1.32
20730;BMP280;10526;50.850;12.928;2023-02-26T19:42:25;98513.91;;;-1.30
20730;BMP280;10526;50.850;12.928;2023-02-26T19:46:49;98523.16;;;-1.24
20730;BMP280;10526;50.850;12.928;2023-02-26T19:51:12;98529.75;;;-1.27
20730;BMP280;10526;50.850;12.928;2023-02-26T19:55:34;98540.97;;;-1.26
20730;BMP280;10526;50.850;12.928;2023-02-26T19:59:56;98540.47;;;-1.28
20730;BMP280;10526;50.850;12.928;2023-02-26T20:04:20;98552.59;;;-1.32
20730;BMP280;10526;50.850;12.928;2023-02-26T20:08:42;98552.78;;;-1.42
20730;BMP280;10526;50.850;12.928;2023-02-26T20:13:05;98566.84;;;-1.52
20730;BMP280;10526;50.850;12.928;2023-02-26T20:17:26;98568.75;;;-1.58
20730;BMP280;10526;50.850;12.928;2023-02-26T20:21:48;98561.63;;;-1.66
20730;BMP280;10526;50.850;12.928;2023-02-26T20:26:13;98573.25;;;-1.72
20730;BMP280;10526;50.850;12.928;2023-02-26T20:30:39;98581.47;;;-1.79
20730;BMP280;10526;50.850;12.928;2023-02-26T20:35:02;98584.75;;;-1.87
20730;BMP280;10526;50.850;12.928;2023-02-26T20:39:24;98588.97;;;-1.91
20730;BMP280;10526;50.850;12.928;2023-02-26T20:43:46;98598.47;;;-1.95
20730;BMP280;10526;50.850;12.928;2023-02-26T20:48:09;98594.88;;;-1.99
20730;BMP280;10526;50.850;12.928;2023-02-26T20:52:31;98598.44;;;-2.09
20730;BMP280;10526;50.850;12.928;2023-02-26T20:56:53;98604.44;;;-2.22
20730;BMP280;10526;50.850;12.928;2023-02-26T21:01:15;98606.19;;;-2.36
20730;BMP280;10526;50.850;12.928;2023-02-26T21:05:37;98615.34;;;-2.53
20730;BMP280;10526;50.850;12.928;2023-02-26T21:09:59;98605.38;;;-2.64
20730;BMP280;10526;50.850;12.928;2023-02-26T21:14:21;98617.19;;;-2.72
20730;BMP280;10526;50.850;12.928;2023-02-26T21:18:45;98623.31;;;-2.82
20730;BMP280;10526;50.850;12.928;2023-02-26T21:23:07;98629.25;;;-2.95
20730;BMP280;10526;50.850;12.928;2023-02-26T21:27:29;98630.19;;;-3.10
20730;BMP280;10526;50.850;12.928;2023-02-26T21:31:51;98634.00;;;-3.21
20730;BMP280;10526;50.850;12.928;2023-02-26T21:36:14;98633.88;;;-3.35
20730;BMP280;10526;50.850;12.928;2023-02-26T21:40:36;98648.34;;;-3.48
20730;BMP280;10526;50.850;12.928;2023-02-26T21:44:58;98643.81;;;-3.61
20730;BMP280;10526;50.850;12.928;2023-02-26T21:49:20;98635.34;;;-3.77
20730;BMP280;10526;50.850;12.928;2023-02-26T21:53:42;98646.66;;;-3.87
20730;BMP280;10526;50.850;12.928;2023-02-26T21:58:06;98642.75;;;-3.89
20730;BMP280;10526;50.850;12.928;2023-02-26T22:02:28;98639.72;;;-3.96
20730;BMP280;10526;50.850;12.928;2023-02-26T22:06:52;98642.41;;;-4.06
20730;BMP280;10526;50.850;12.928;2023-02-26T22:11:14;98642.50;;;-4.22
20730;BMP280;10526;50.850;12.928;2023-02-26T22:15:36;98640.50;;;-4.30
20730;BMP280;10526;50.850;12.928;2023-02-26T22:19:58;98649.66;;;-4.43
20730;BMP280;10526;50.850;12.928;2023-02-26T22:24:20;98646.66;;;-4.55
20730;BMP280;10526;50.850;12.928;2023-02-26T22:28:42;98638.09;;;-4.61
20730;BMP280;10526;50.850;12.928;2023-02-26T22:33:04;98648.56;;;-4.71
20730;BMP280;10526;50.850;12.928;2023-02-26T22:37:26;98649.38;;;-4.81
20730;BMP280;10526;50.850;12.928;2023-02-26T22:41:48;98644.44;;;-4.77
20730;BMP280;10526;50.850;12.928;2023-02-26T22:46:11;98649.69;;;-4.87
20730;BMP280;10526;50.850;12.928;2023-02-26T22:50:33;98647.09;;;-4.97
20730;BMP280;10526;50.850;12.928;2023-02-26T22:54:56;98651.56;;;-5.13
20730;BMP280;10526;50.850;12.928;2023-02-26T22:59:18;98650.34;;;-5.26
20730;BMP280;10526;50.850;12.928;2023-02-26T23:03:40;98651.41;;;-5.37
20730;BMP280;10526;50.850;12.928;2023-02-26T23:08:02;98656.88;;;-5.44
20730;BMP280;10526;50.850;12.928;2023-02-26T23:12:24;98654.53;;;-5.51
20730;BMP280;10526;50.850;12.928;2023-02-26T23:16:46;98650.66;;;-5.58
20730;BMP280;10526;50.850;12.928;2023-02-26T23:21:08;98664.94;;;-5.66
20730;BMP280;10526;50.850;12.928;2023-02-26T23:25:31;98656.66;;;-5.68
20730;BMP280;10526;50.850;12.928;2023-02-26T23:29:52;98660.28;;;-5.74
20730;BMP280;10526;50.850;12.928;2023-02-26T23:34:15;98659.25;;;-5.83
20730;BMP280;10526;50.850;12.928;2023-02-26T23:38:37;98651.97;;;-5.97
20730;BMP280;10526;50.850;12.928;2023-02-26T23:42:59;98666.28;;;-5.99
20730;BMP280;10526;50.850;12.928;2023-02-26T23:47:21;98667.56;;;-6.07
20730;BMP280;10526;50.850;12.928;2023-02-26T23:51:44;98668.56;;;-6.08
20730;BMP280;10526;50.850;12.928;2023-02-26T23:56:07;98670.66;;;-6.10
